Terminal Aerodrome Forecast
Issued by NWS

Home | Current Version | Previous Version | Text Only | Print | Product List | Glossary On
Versions: 1 2 3 4 5 6 7 8 9 10 11 12 13 14 15 16 17 18 19 20 21 22 23 24 25 26 27 28
000
FTUS41 KBUF 300908 AAA
TAFJHW
TAF AMD
KJHW 300908Z 3009/3106 VRB03KT 3SM BR SCT120
      TEMPO 3009/3013 3/4SM BR BKN005
     FM301300 18004KT P6SM BKN120
     FM301600 VRB03KT P6SM SCT250
     FM301900 26004KT P6SM FEW250
     FM310500 19004KT P6SM SCT200
      AMD LTD TO CLD VIS AND WIND=

USA.gov is the U.S. government's official web portal to all federal, state and local government web resources and services.